createdAt,value
2022-09-17T00:02:35.325Z,12.64
2022-09-17T00:07:37.446Z,12.62
2022-09-17T00:12:39.317Z,12.61
2022-09-17T00:17:41.945Z,12.63
2022-09-17T00:22:43.724Z,12.63
2022-09-17T00:27:46.281Z,12.64
2022-09-17T00:32:48.044Z,12.63
2022-09-17T00:37:49.985Z,12.63
2022-09-17T00:42:53.419Z,12.62
2022-09-17T00:48:01.967Z,12.63
2022-09-17T00:53:12.455Z,12.63
2022-09-17T00:58:18.780Z,12.62
2022-09-17T01:03:20.858Z,12.63
2022-09-17T01:08:38.904Z,12.62
2022-09-17T01:13:55.578Z,12.60
2022-09-17T01:19:19.016Z,12.58
2022-09-17T01:24:47.935Z,12.55
2022-09-17T01:30:15.211Z,12.56
2022-09-17T01:35:49.123Z,12.58
2022-09-17T01:40:54.077Z,12.56
2022-09-17T01:46:20.388Z,12.59
2022-09-17T01:51:28.214Z,12.58
2022-09-17T01:56:42.482Z,12.59
2022-09-17T02:01:48.486Z,12.61
2022-09-17T02:06:58.972Z,12.61
2022-09-17T02:12:08.217Z,12.62
2022-09-17T02:17:28.428Z,12.61
2022-09-17T02:22:44.286Z,12.59
2022-09-17T02:27:48.403Z,12.56
2022-09-17T02:32:51.059Z,12.56
2022-09-17T02:37:53.414Z,12.56
2022-09-17T02:43:13.381Z,12.59
2022-09-17T02:48:30.699Z,12.60
2022-09-17T02:54:21.823Z,12.58
2022-09-17T03:00:05.189Z,12.56
2022-09-17T03:05:08.641Z,12.55
2022-09-17T03:10:11.147Z,12.52
2022-09-17T03:15:13.157Z,12.51
2022-09-17T03:20:16.202Z,12.50
2022-09-17T03:25:18.120Z,12.46
2022-09-17T03:30:20.052Z,12.43
2022-09-17T03:35:22.244Z,12.41
2022-09-17T03:40:24.261Z,12.42
2022-09-17T03:45:26.123Z,12.42
2022-09-17T03:50:27.984Z,12.43
2022-09-17T03:55:29.784Z,12.45
2022-09-17T04:00:32.004Z,12.45
2022-09-17T04:05:34.022Z,12.41
2022-09-17T04:10:35.907Z,12.40
2022-09-17T04:15:38.006Z,12.40
2022-09-17T04:20:40.079Z,12.39
2022-09-17T04:25:42.590Z,12.37
2022-09-17T04:30:44.489Z,12.37
2022-09-17T04:35:46.787Z,12.34
2022-09-17T04:40:48.830Z,12.31
2022-09-17T04:45:50.895Z,12.27
2022-09-17T04:50:52.783Z,12.24
2022-09-17T04:55:54.722Z,12.22
2022-09-17T05:00:56.674Z,12.24
2022-09-17T05:05:58.723Z,12.24
2022-09-17T05:11:00.597Z,12.25
2022-09-17T05:16:02.722Z,12.24
2022-09-17T05:21:04.641Z,12.25
2022-09-17T05:26:06.551Z,12.25
2022-09-17T05:31:09.022Z,12.28
2022-09-17T05:36:10.909Z,12.27
2022-09-17T05:41:12.769Z,12.25
2022-09-17T05:46:14.669Z,12.27
2022-09-17T05:51:16.724Z,12.30
2022-09-17T05:56:19.602Z,12.35
2022-09-17T06:01:21.691Z,12.38
2022-09-17T06:06:23.574Z,12.39
2022-09-17T06:11:25.557Z,12.40
2022-09-17T06:16:27.741Z,12.45
2022-09-17T06:21:30.113Z,12.51
2022-09-17T06:26:32.151Z,12.51
2022-09-17T06:31:34.241Z,12.52
2022-09-17T06:36:36.127Z,12.53
2022-09-17T06:41:39.117Z,12.51
2022-09-17T06:46:41.145Z,12.47
2022-09-17T06:51:43.044Z,12.42
2022-09-17T06:56:47.955Z,12.42
2022-09-17T07:01:49.801Z,12.46
2022-09-17T07:06:51.643Z,12.51
2022-09-17T07:11:53.459Z,12.54
2022-09-17T07:16:55.542Z,12.57
2022-09-17T07:21:57.556Z,12.58
2022-09-17T07:26:59.664Z,12.53
2022-09-17T07:32:01.744Z,12.48
2022-09-17T07:37:03.575Z,12.40
2022-09-17T07:42:05.562Z,12.39
2022-09-17T07:47:07.837Z,12.41
2022-09-17T07:52:09.831Z,12.44
2022-09-17T07:57:11.627Z,12.46
2022-09-17T08:02:14.419Z,12.49
2022-09-17T08:07:16.317Z,12.53
2022-09-17T08:12:19.606Z,12.52
2022-09-17T08:17:21.408Z,12.52
2022-09-17T08:22:23.431Z,12.59
2022-09-17T08:27:25.259Z,12.67
2022-09-17T08:32:30.196Z,12.72
2022-09-17T08:37:31.982Z,12.75
2022-09-17T08:42:47.202Z,12.75
2022-09-17T08:47:49.886Z,12.75
2022-09-17T08:53:21.340Z,12.81
2022-09-17T08:58:49.178Z,12.96
2022-09-17T09:04:25.040Z,13.22
2022-09-17T09:09:35.457Z,13.34
2022-09-17T09:14:59.915Z,13.33
2022-09-17T09:20:02.107Z,13.33
2022-09-17T09:25:13.223Z,13.37
2022-09-17T09:30:16.967Z,13.54
2022-09-17T09:35:31.292Z,13.56
2022-09-17T09:41:01.075Z,13.58
2022-09-17T09:46:08.911Z,13.65
2022-09-17T09:51:16.632Z,13.77
2022-09-17T09:56:32.446Z,13.86
2022-09-17T10:01:41.273Z,13.81
2022-09-17T10:06:43.644Z,13.92
2022-09-17T10:12:04.917Z,14.19
2022-09-17T10:17:21.022Z,14.38
2022-09-17T10:22:44.201Z,14.30
2022-09-17T10:27:48.451Z,14.38
2022-09-17T10:33:29.735Z,14.23
2022-09-17T10:38:36.614Z,14.13
2022-09-17T10:43:42.542Z,13.97
2022-09-17T10:48:54.194Z,13.65
2022-09-17T10:54:08.003Z,13.43
2022-09-17T10:59:39.549Z,13.41
2022-09-17T11:05:00.843Z,13.49
2022-09-17T11:10:05.403Z,13.72
2022-09-17T11:15:24.336Z,13.80
2022-09-17T11:20:53.625Z,13.75
2022-09-17T11:26:04.286Z,13.63
2022-09-17T11:31:33.453Z,13.58
2022-09-17T11:36:54.003Z,13.68
2022-09-17T11:41:57.954Z,13.80
2022-09-17T11:47:02.476Z,13.82
2022-09-17T11:52:07.013Z,13.70
2022-09-17T11:57:25.702Z,13.49
2022-09-17T12:02:30.602Z,13.30
2022-09-17T12:08:12.483Z,13.17
2022-09-17T12:13:22.470Z,13.19
2022-09-17T12:18:32.873Z,13.28
2022-09-17T12:23:43.337Z,13.38
2022-09-17T12:28:59.728Z,13.51
2022-09-17T12:34:32.492Z,13.47
2022-09-17T12:39:44.237Z,13.42
2022-09-17T12:45:05.448Z,13.41
2022-09-17T12:50:41.086Z,13.51
2022-09-17T12:55:48.481Z,13.66
2022-09-17T13:01:03.211Z,13.75
2022-09-17T13:06:13.967Z,13.90
2022-09-17T13:11:56.265Z,14.00
2022-09-17T13:16:58.036Z,13.97
2022-09-17T13:22:10.423Z,13.90
2022-09-17T13:27:26.234Z,13.86
2022-09-17T13:32:34.000Z,13.80
2022-09-17T13:37:41.543Z,13.72
2022-09-17T13:42:47.857Z,13.62
2022-09-17T13:47:57.756Z,13.58
2022-09-17T13:53:13.162Z,13.58
2022-09-17T13:58:21.044Z,13.63
2022-09-17T14:03:28.676Z,13.69
2022-09-17T14:08:58.519Z,13.74
2022-09-17T14:14:06.529Z,13.82
2022-09-17T14:19:50.981Z,13.87
2022-09-17T14:24:55.087Z,13.87
2022-09-17T14:29:59.777Z,13.90
2022-09-17T14:35:19.778Z,13.92
2022-09-17T14:40:24.114Z,13.92
2022-09-17T14:45:42.838Z,13.97
2022-09-17T14:50:44.694Z,13.94
2022-09-17T14:55:49.888Z,13.91
2022-09-17T15:00:53.634Z,13.89
2022-09-17T15:05:55.554Z,13.88
2022-09-17T15:11:11.025Z,13.81
2022-09-17T15:16:27.154Z,13.79
2022-09-17T15:21:31.947Z,13.90
2022-09-17T15:26:40.625Z,14.07
2022-09-17T15:31:42.611Z,14.17
2022-09-17T15:37:17.822Z,14.25
2022-09-17T15:42:19.540Z,14.33
2022-09-17T15:47:52.195Z,14.33
2022-09-17T15:53:11.298Z,14.36
2022-09-17T15:58:45.603Z,14.33
2022-09-17T16:04:01.765Z,14.27
2022-09-17T16:09:04.296Z,14.19
2022-09-17T16:14:06.104Z,14.11
2022-09-17T16:19:10.590Z,14.02
2022-09-17T16:24:12.413Z,13.94
2022-09-17T16:29:17.275Z,13.85
2022-09-17T16:34:19.047Z,13.79
2022-09-17T16:39:20.978Z,13.71
2022-09-17T16:44:22.791Z,13.65
2022-09-17T16:49:24.623Z,13.56
2022-09-17T16:54:26.391Z,13.51
2022-09-17T16:59:28.219Z,13.44
2022-09-17T17:04:29.982Z,13.39
2022-09-17T17:09:31.863Z,13.33
2022-09-17T17:14:33.679Z,13.27
2022-09-17T17:19:36.849Z,13.23
2022-09-17T17:24:38.743Z,13.18
2022-09-17T17:29:41.403Z,13.14
2022-09-17T17:34:43.236Z,13.08
2022-09-17T17:39:45.106Z,13.03
2022-09-17T17:44:47.744Z,12.97
2022-09-17T17:49:49.543Z,12.90
2022-09-17T17:54:51.424Z,12.84
2022-09-17T17:59:53.298Z,12.79
2022-09-17T18:04:55.083Z,12.74
2022-09-17T18:09:57.163Z,12.69
2022-09-17T18:14:59.034Z,12.62
2022-09-17T18:20:00.902Z,12.54
2022-09-17T18:25:02.638Z,12.48
2022-09-17T18:30:08.302Z,12.42
2022-09-17T18:35:10.089Z,12.35
2022-09-17T18:40:12.203Z,12.29
2022-09-17T18:45:14.076Z,12.26
2022-09-17T18:50:16.557Z,12.25
2022-09-17T18:55:18.417Z,12.22
2022-09-17T19:00:21.354Z,12.19
2022-09-17T19:05:24.218Z,12.17
2022-09-17T19:10:27.276Z,12.15
2022-09-17T19:15:30.595Z,12.17
2022-09-17T19:20:37.187Z,12.18
2022-09-17T19:25:39.328Z,12.20
2022-09-17T19:30:41.232Z,12.19
2022-09-17T19:35:43.017Z,12.18
2022-09-17T19:40:55.311Z,12.16
2022-09-17T19:46:05.630Z,12.15
2022-09-17T19:51:07.551Z,12.13
2022-09-17T19:56:18.507Z,12.10
2022-09-17T20:01:20.904Z,12.01
2022-09-17T20:06:24.100Z,12.00
2022-09-17T20:11:26.866Z,11.95
2022-09-17T20:16:29.897Z,11.89
2022-09-17T20:21:32.788Z,11.84
2022-09-17T20:26:35.543Z,11.79
2022-09-17T20:31:37.595Z,11.74
2022-09-17T20:36:39.540Z,11.66
2022-09-17T20:41:42.362Z,11.61
2022-09-17T20:46:44.158Z,11.59
2022-09-17T20:51:45.966Z,11.56
2022-09-17T20:56:47.814Z,11.54
2022-09-17T21:01:50.130Z,11.52
2022-09-17T21:06:53.789Z,11.48
2022-09-17T21:11:55.584Z,11.43
2022-09-17T21:16:57.517Z,11.40
2022-09-17T21:21:59.406Z,11.38
2022-09-17T21:27:01.151Z,11.36
2022-09-17T21:32:02.897Z,11.35
2022-09-17T21:37:05.663Z,11.33
2022-09-17T21:42:08.021Z,11.33
2022-09-17T21:47:12.425Z,11.33
2022-09-17T21:52:14.491Z,11.34
2022-09-17T21:57:16.312Z,11.34
2022-09-17T22:02:18.180Z,11.33
2022-09-17T22:07:20.711Z,11.30
2022-09-17T22:12:24.546Z,11.24
2022-09-17T22:17:26.401Z,11.20
2022-09-17T22:22:28.107Z,11.14
2022-09-17T22:27:29.886Z,11.12
2022-09-17T22:32:31.780Z,11.07
2022-09-17T22:37:33.520Z,11.06
2022-09-17T22:42:35.333Z,11.04
2022-09-17T22:47:42.965Z,11.09
2022-09-17T22:52:47.731Z,11.08
2022-09-17T22:57:49.495Z,11.04
2022-09-17T23:02:52.360Z,10.99
2022-09-17T23:07:54.341Z,10.91
2022-09-17T23:12:56.153Z,10.84
2022-09-17T23:17:58.051Z,10.79
2022-09-17T23:23:03.051Z,10.77
2022-09-17T23:28:05.037Z,10.75
2022-09-17T23:33:06.829Z,10.71
2022-09-17T23:38:08.733Z,10.68
2022-09-17T23:43:10.612Z,10.68
2022-09-17T23:48:12.423Z,10.69
2022-09-17T23:53:14.420Z,10.70
2022-09-17T23:58:16.628Z,10.71
